createdAt,value
2019-04-30T00:02:27.835Z,16.63
2019-04-30T00:04:56.602Z,16.97
2019-04-30T00:07:25.347Z,18.17
2019-04-30T00:09:55.205Z,18.33
2019-04-30T00:12:25.753Z,16.87
2019-04-30T00:14:55.033Z,17.40
2019-04-30T00:17:25.557Z,19.47
2019-04-30T00:19:58.222Z,17.87
2019-04-30T00:22:31.725Z,16.67
2019-04-30T00:24:55.656Z,16.97
2019-04-30T00:27:26.344Z,17.00
2019-04-30T00:29:55.805Z,16.87
2019-04-30T00:32:25.832Z,17.50
2019-04-30T00:34:55.668Z,17.03
2019-04-30T00:37:25.473Z,16.20
2019-04-30T00:39:55.553Z,16.80
2019-04-30T00:42:28.412Z,15.80
2019-04-30T00:44:55.296Z,17.23
2019-04-30T00:47:25.663Z,17.13
2019-04-30T00:49:58.846Z,17.00
2019-04-30T00:52:25.303Z,16.20
2019-04-30T00:54:55.330Z,17.00
2019-04-30T00:57:26.369Z,16.90
2019-04-30T00:59:54.897Z,17.93
2019-04-30T01:05:22.453Z,18.73
2019-04-30T01:07:51.934Z,19.97
2019-04-30T01:10:24.795Z,19.80
2019-04-30T01:12:50.645Z,18.80
2019-04-30T01:15:19.164Z,19.40
2019-04-30T01:17:51.013Z,19.40
2019-04-30T01:20:19.359Z,21.03
2019-04-30T01:22:48.707Z,21.07
2019-04-30T01:25:18.681Z,21.60
2019-04-30T01:27:49.105Z,21.63
2019-04-30T01:30:22.557Z,20.80
2019-04-30T01:32:51.956Z,20.43
2019-04-30T01:35:19.124Z,21.53
2019-04-30T01:37:48.792Z,22.77
2019-04-30T01:40:19.053Z,23.00
2019-04-30T01:42:50.773Z,22.90
2019-04-30T01:45:18.806Z,23.83
2019-04-30T01:47:49.123Z,22.13
2019-04-30T01:50:19.277Z,20.43
2019-04-30T01:52:53.659Z,20.87
2019-04-30T01:55:25.087Z,21.40
2019-04-30T01:57:59.165Z,18.70
2019-04-30T02:00:29.394Z,19.93
2019-04-30T02:02:59.233Z,18.73
2019-04-30T02:05:28.748Z,19.87
2019-04-30T02:07:58.501Z,20.03
2019-04-30T02:10:28.538Z,20.53
2019-04-30T02:12:58.953Z,19.70
2019-04-30T02:15:29.046Z,19.57
2019-04-30T02:17:58.724Z,20.50
2019-04-30T02:20:28.686Z,20.63
2019-04-30T02:22:58.698Z,19.83
2019-04-30T02:25:29.351Z,19.13
2019-04-30T02:27:59.091Z,18.70
2019-04-30T02:30:30.509Z,19.17
2019-04-30T02:33:19.928Z,20.30
2019-04-30T02:36:05.923Z,19.07
2019-04-30T02:38:36.106Z,19.53
2019-04-30T02:41:05.162Z,19.63
2019-04-30T02:43:53.303Z,19.17
2019-04-30T02:46:23.255Z,19.80
2019-04-30T02:48:53.619Z,19.37
2019-04-30T02:51:24.683Z,19.03
2019-04-30T02:54:11.320Z,19.37
2019-04-30T02:56:44.438Z,19.37
2019-04-30T02:59:12.887Z,18.87
2019-04-30T03:01:43.983Z,20.77
2019-04-30T03:04:12.442Z,19.63
2019-04-30T03:06:41.321Z,19.00
2019-04-30T03:09:11.037Z,19.17
2019-04-30T03:11:40.907Z,21.03
2019-04-30T03:14:10.331Z,19.80
2019-04-30T03:16:46.726Z,20.20
2019-04-30T03:19:22.315Z,20.30
2019-04-30T03:21:55.321Z,19.23
2019-04-30T03:24:23.987Z,19.23
2019-04-30T03:26:52.445Z,19.80
2019-04-30T03:29:23.898Z,21.40
2019-04-30T03:31:52.507Z,21.50
2019-04-30T03:34:25.831Z,19.80
2019-04-30T03:36:51.457Z,20.90
2019-04-30T03:39:25.687Z,20.97
2019-04-30T03:41:54.116Z,19.90
2019-04-30T03:44:25.855Z,19.90
2019-04-30T03:46:52.777Z,20.07
2019-04-30T03:52:19.666Z,20.67
2019-04-30T03:54:49.452Z,20.43
2019-04-30T03:57:20.470Z,19.43
2019-04-30T03:59:49.989Z,19.63
2019-04-30T04:02:25.980Z,19.93
2019-04-30T04:04:56.075Z,22.00
2019-04-30T04:07:29.967Z,20.80
2019-04-30T04:10:00.386Z,20.73
2019-04-30T04:12:30.460Z,20.23
2019-04-30T04:15:03.287Z,21.93
2019-04-30T04:17:31.389Z,20.53
2019-04-30T04:19:59.990Z,22.33
2019-04-30T04:22:30.672Z,21.83
2019-04-30T04:25:00.104Z,22.37
2019-04-30T04:27:30.097Z,21.37
2019-04-30T04:30:01.059Z,21.53
2019-04-30T04:32:30.727Z,21.87
2019-04-30T04:46:04.441Z,22.07
2019-04-30T04:48:33.456Z,23.03
2019-04-30T04:51:01.921Z,22.53
2019-04-30T04:53:30.617Z,22.90
2019-04-30T04:55:59.896Z,22.43
2019-04-30T04:58:30.223Z,22.23
2019-04-30T05:00:59.299Z,21.77
2019-04-30T05:03:29.897Z,23.10
2019-04-30T05:06:01.895Z,23.10
2019-04-30T05:08:28.693Z,22.43
2019-04-30T05:10:57.140Z,21.60
2019-04-30T05:13:25.651Z,23.67
2019-04-30T05:15:54.665Z,23.33
2019-04-30T05:18:23.107Z,22.70
2019-04-30T05:20:55.940Z,22.17
2019-04-30T05:23:22.017Z,22.77
2019-04-30T05:25:50.508Z,24.07
2019-04-30T05:28:20.302Z,18.63
2019-04-30T05:30:49.429Z,21.47
2019-04-30T05:33:18.655Z,23.03
2019-04-30T05:35:47.202Z,20.03
2019-04-30T05:38:15.651Z,20.63
2019-04-30T05:40:44.523Z,19.87
2019-04-30T05:43:12.971Z,19.57
2019-04-30T05:45:41.419Z,19.10
2019-04-30T05:48:12.868Z,20.53
2019-04-30T05:50:41.672Z,16.60
2019-04-30T05:53:10.497Z,18.90
2019-04-30T05:55:41.778Z,18.30
2019-04-30T05:58:11.773Z,19.63
2019-04-30T06:00:59.832Z,19.03
2019-04-30T06:03:33.038Z,19.23
2019-04-30T06:05:58.979Z,17.23
2019-04-30T06:08:29.322Z,18.57
2019-04-30T06:11:05.181Z,18.57
2019-04-30T06:13:49.151Z,18.27
2019-04-30T06:16:18.917Z,19.77
2019-04-30T06:18:48.546Z,18.33
2019-04-30T06:21:19.283Z,19.13
2019-04-30T06:23:49.184Z,16.87
2019-04-30T06:26:20.462Z,17.87
2019-04-30T06:28:49.625Z,17.83
2019-04-30T06:31:22.280Z,17.93
2019-04-30T06:33:48.712Z,17.27
2019-04-30T06:36:19.055Z,17.43
2019-04-30T06:38:48.869Z,17.50
2019-04-30T06:41:17.553Z,16.80
2019-04-30T06:43:46.367Z,16.90
2019-04-30T06:46:14.864Z,17.17
2019-04-30T06:48:45.857Z,17.20
2019-04-30T06:51:13.573Z,17.40
2019-04-30T06:54:01.362Z,16.73
2019-04-30T06:56:29.780Z,14.23
2019-04-30T06:58:59.015Z,15.90
2019-04-30T07:01:29.035Z,17.10
2019-04-30T07:04:00.786Z,14.87
2019-04-30T07:06:32.307Z,16.07
2019-04-30T07:09:02.700Z,15.87
2019-04-30T07:11:32.755Z,14.30
2019-04-30T07:14:01.303Z,15.13
2019-04-30T07:16:30.221Z,14.17
2019-04-30T07:18:58.740Z,9.33
2019-04-30T07:21:29.428Z,10.57
2019-04-30T07:23:59.557Z,12.77
2019-04-30T07:26:28.908Z,11.40
2019-04-30T07:29:01.846Z,13.00
2019-04-30T07:31:29.570Z,11.57
2019-04-30T07:33:59.467Z,11.90
2019-04-30T07:36:43.328Z,11.57
2019-04-30T07:38:59.920Z,11.43
2019-04-30T07:41:30.821Z,9.77
2019-04-30T07:43:59.295Z,12.10
2019-04-30T07:46:29.797Z,12.50
2019-04-30T07:49:00.013Z,10.87
2019-04-30T07:51:32.076Z,11.17
2019-04-30T07:53:59.110Z,11.27
2019-04-30T07:56:32.156Z,10.07
2019-04-30T07:59:00.741Z,11.03
2019-04-30T08:01:30.997Z,12.13
2019-04-30T08:04:01.329Z,11.70
2019-04-30T08:06:31.144Z,11.00
2019-04-30T08:09:00.987Z,10.77
2019-04-30T08:11:34.442Z,10.77
2019-04-30T08:14:00.350Z,9.83
2019-04-30T08:16:29.025Z,11.53
2019-04-30T08:18:59.200Z,10.23
2019-04-30T08:21:28.767Z,10.20
2019-04-30T08:23:59.362Z,11.13
2019-04-30T08:26:28.677Z,9.80
2019-04-30T08:28:57.339Z,12.03
2019-04-30T08:31:26.494Z,10.37
2019-04-30T08:33:54.908Z,8.87
2019-04-30T08:36:23.346Z,11.87
2019-04-30T08:38:51.824Z,10.70
2019-04-30T08:41:20.265Z,7.67
2019-04-30T08:43:49.660Z,10.47
2019-04-30T08:46:19.077Z,10.97
2019-04-30T08:48:51.643Z,10.97
2019-04-30T08:51:19.052Z,10.53
2019-04-30T08:53:48.629Z,11.13
2019-04-30T08:56:17.228Z,11.50
2019-04-30T08:58:46.035Z,10.73
2019-04-30T09:01:14.630Z,8.37
2019-04-30T09:03:43.147Z,11.43
2019-04-30T09:06:13.261Z,11.13
2019-04-30T09:08:42.159Z,10.80
2019-04-30T09:11:22.450Z,11.07
2019-04-30T09:13:43.818Z,10.53
2019-04-30T09:16:13.056Z,11.50
2019-04-30T09:18:41.739Z,10.47
2019-04-30T09:21:11.865Z,11.40
2019-04-30T09:23:49.460Z,10.13
2019-04-30T09:26:12.184Z,11.03
2019-04-30T09:28:41.170Z,11.00
2019-04-30T09:31:09.580Z,10.80
2019-04-30T09:33:41.353Z,10.87
2019-04-30T09:36:12.490Z,11.37
2019-04-30T09:38:42.499Z,13.00
2019-04-30T09:41:12.494Z,12.00
2019-04-30T09:43:42.456Z,11.63
2019-04-30T09:46:21.996Z,11.63
2019-04-30T09:48:43.798Z,11.77
2019-04-30T09:51:12.920Z,11.27
2019-04-30T09:53:42.197Z,12.00
2019-04-30T09:56:11.080Z,11.53
2019-04-30T09:58:40.166Z,11.63
2019-04-30T10:01:10.267Z,11.47
2019-04-30T10:03:40.363Z,12.03
2019-04-30T10:06:09.775Z,11.40
2019-04-30T10:11:49.918Z,13.03
2019-04-30T10:14:18.174Z,12.93
2019-04-30T10:16:54.380Z,11.30
2019-04-30T10:19:22.807Z,11.30
2019-04-30T10:21:51.267Z,11.50
2019-04-30T10:24:19.761Z,12.20
2019-04-30T10:26:48.231Z,11.73
2019-04-30T10:29:17.709Z,11.37
2019-04-30T10:31:48.901Z,11.90
2019-04-30T10:34:17.194Z,12.20
2019-04-30T10:36:45.753Z,11.87
2019-04-30T10:39:14.384Z,9.67
2019-04-30T10:41:42.804Z,11.73
2019-04-30T10:44:14.159Z,12.57
2019-04-30T10:46:42.613Z,12.07
2019-04-30T10:49:12.751Z,11.33
2019-04-30T10:51:43.915Z,13.00
2019-04-30T10:54:23.206Z,11.30
2019-04-30T10:56:42.515Z,11.63
2019-04-30T10:59:12.556Z,11.83
2019-04-30T11:01:42.597Z,12.13
2019-04-30T11:04:24.887Z,11.60
2019-04-30T11:06:53.477Z,11.77
2019-04-30T11:09:21.990Z,10.53
2019-04-30T11:11:53.472Z,11.50
2019-04-30T11:14:21.926Z,10.47
2019-04-30T11:16:51.750Z,10.90
2019-04-30T11:19:20.583Z,9.93
2019-04-30T11:21:49.381Z,10.43
2019-04-30T11:24:19.611Z,10.10
2019-04-30T11:26:50.162Z,10.20
2019-04-30T11:29:18.574Z,11.60
2019-04-30T11:32:04.006Z,11.10
2019-04-30T11:34:32.664Z,10.10
2019-04-30T11:37:01.340Z,10.87
2019-04-30T11:39:29.908Z,10.10
2019-04-30T11:41:58.399Z,9.33
2019-04-30T11:44:31.357Z,9.40
2019-04-30T11:47:00.543Z,10.63
2019-04-30T11:49:29.129Z,9.80
2019-04-30T11:51:57.809Z,9.87
2019-04-30T11:54:26.357Z,9.73
2019-04-30T11:56:54.888Z,9.63
2019-04-30T11:59:23.317Z,8.90
2019-04-30T12:01:53.456Z,9.13
2019-04-30T12:04:21.887Z,8.60
2019-04-30T12:06:50.944Z,8.20
2019-04-30T12:09:38.610Z,7.87
2019-04-30T12:12:09.035Z,7.67
2019-04-30T12:14:42.078Z,7.73
2019-04-30T12:17:13.438Z,8.10
2019-04-30T12:19:41.919Z,7.07
2019-04-30T12:22:11.902Z,7.90
2019-04-30T12:24:41.917Z,7.07
2019-04-30T12:27:11.872Z,6.97
2019-04-30T12:29:41.888Z,7.87
2019-04-30T12:32:29.895Z,8.20
2019-04-30T12:34:58.498Z,7.47
2019-04-30T12:37:28.971Z,5.40
2019-04-30T12:39:57.065Z,6.77
2019-04-30T12:42:25.716Z,6.30
2019-04-30T12:44:54.350Z,7.63
2019-04-30T12:47:22.754Z,7.17
2019-04-30T12:50:00.941Z,6.97
2019-04-30T12:55:29.361Z,6.27
2019-04-30T12:58:01.650Z,5.93
2019-04-30T13:00:29.948Z,6.47
2019-04-30T13:03:04.061Z,6.77
2019-04-30T13:05:52.249Z,7.30
2019-04-30T13:08:21.990Z,6.47
2019-04-30T13:10:51.816Z,6.47
2019-04-30T13:13:21.139Z,6.00
2019-04-30T13:15:49.846Z,5.53
2019-04-30T13:18:39.386Z,6.13
2019-04-30T13:21:08.594Z,5.53
2019-04-30T13:23:37.286Z,5.33
2019-04-30T13:26:05.796Z,5.43
2019-04-30T13:28:51.860Z,5.57
2019-04-30T13:31:20.372Z,6.30
2019-04-30T13:36:40.719Z,6.00
2019-04-30T13:39:09.863Z,5.27
2019-04-30T13:44:19.480Z,6.27
2019-04-30T13:46:48.212Z,6.60
2019-04-30T13:49:16.644Z,6.33
2019-04-30T13:51:45.104Z,6.13
2019-04-30T13:54:13.554Z,6.23
2019-04-30T13:56:41.975Z,6.07
2019-04-30T13:59:10.399Z,6.47
2019-04-30T14:01:39.118Z,6.27
2019-04-30T14:04:09.290Z,6.10
2019-04-30T14:06:45.371Z,5.90
2019-04-30T14:09:21.692Z,5.20
2019-04-30T14:11:50.201Z,4.33
2019-04-30T14:14:20.017Z,5.47
2019-04-30T14:16:48.512Z,5.20
2019-04-30T14:19:16.919Z,5.00
2019-04-30T14:21:45.388Z,5.07
2019-04-30T14:24:14.110Z,4.50
2019-04-30T14:26:42.537Z,4.60
2019-04-30T14:29:10.956Z,3.97
2019-04-30T14:31:39.390Z,4.70
2019-04-30T14:34:10.026Z,4.40
2019-04-30T14:36:39.201Z,3.93
2019-04-30T14:39:16.079Z,3.90
2019-04-30T14:41:40.336Z,3.33
2019-04-30T14:44:31.861Z,3.70
2019-04-30T14:47:11.789Z,4.00
2019-04-30T14:50:01.587Z,3.80
2019-04-30T14:52:23.241Z,3.67
2019-04-30T14:55:02.308Z,3.83
2019-04-30T14:57:32.390Z,3.20
2019-04-30T15:00:02.433Z,3.43
2019-04-30T15:02:44.545Z,4.00
2019-04-30T15:05:13.194Z,3.50
2019-04-30T15:07:41.845Z,3.50
2019-04-30T15:10:11.912Z,4.10
2019-04-30T15:12:41.900Z,3.50
2019-04-30T15:15:11.366Z,3.13
2019-04-30T15:17:42.765Z,3.10
2019-04-30T15:20:14.676Z,3.47
2019-04-30T15:22:44.778Z,3.17
2019-04-30T15:25:13.544Z,2.90
2019-04-30T15:27:45.202Z,3.67
2019-04-30T15:30:12.985Z,3.67
2019-04-30T15:32:43.366Z,3.37
2019-04-30T15:35:11.890Z,3.27
2019-04-30T15:37:43.587Z,3.80
2019-04-30T15:40:12.111Z,3.23
2019-04-30T15:42:45.061Z,3.00
2019-04-30T15:45:16.188Z,3.30
2019-04-30T15:47:44.629Z,2.97
2019-04-30T15:50:13.401Z,3.07
2019-04-30T15:52:41.886Z,2.63
2019-04-30T15:55:12.326Z,3.03
2019-04-30T15:57:45.235Z,3.10
2019-04-30T16:00:13.839Z,3.10
2019-04-30T16:02:54.748Z,2.90
2019-04-30T16:05:19.425Z,2.90
2019-04-30T16:07:49.508Z,2.93
2019-04-30T16:10:25.583Z,3.13
2019-04-30T16:12:58.873Z,2.90
2019-04-30T16:15:29.647Z,3.00
2019-04-30T16:18:05.054Z,3.07
2019-04-30T16:20:33.487Z,2.87
2019-04-30T16:23:02.093Z,2.90
2019-04-30T16:25:32.592Z,3.03
2019-04-30T16:28:01.279Z,2.90
2019-04-30T16:30:29.691Z,2.80
2019-04-30T16:32:59.648Z,2.93
2019-04-30T16:35:29.577Z,2.80
2019-04-30T16:38:01.065Z,3.20
2019-04-30T16:40:29.488Z,2.80
2019-04-30T16:42:58.004Z,2.90
2019-04-30T16:45:26.465Z,2.77
2019-04-30T16:47:54.918Z,3.00
2019-04-30T16:50:23.368Z,3.00
2019-04-30T16:55:24.194Z,3.30
2019-04-30T16:57:52.645Z,2.90
2019-04-30T17:00:21.331Z,2.50
2019-04-30T17:02:51.407Z,2.77
2019-04-30T17:05:30.435Z,2.80
2019-04-30T17:08:01.855Z,2.70
2019-04-30T17:10:50.298Z,2.50
2019-04-30T17:13:29.017Z,3.50
2019-04-30T17:16:01.734Z,2.80
2019-04-30T17:18:30.157Z,2.97
2019-04-30T17:20:58.690Z,2.80
2019-04-30T17:23:29.230Z,2.80
2019-04-30T17:25:57.335Z,3.03
2019-04-30T17:28:25.764Z,2.90
2019-04-30T17:30:54.177Z,2.90
2019-04-30T17:33:22.654Z,2.73
2019-04-30T17:35:51.128Z,2.90
2019-04-30T17:38:19.536Z,3.17
2019-04-30T17:40:49.683Z,2.40
2019-04-30T17:43:18.264Z,2.77
2019-04-30T17:45:46.703Z,2.57
2019-04-30T17:48:15.115Z,2.60
2019-04-30T17:50:43.603Z,2.60
2019-04-30T17:53:12.054Z,2.30
2019-04-30T17:55:40.499Z,2.70
2019-04-30T17:58:09.776Z,2.70
2019-04-30T18:00:40.094Z,2.70
2019-04-30T18:03:08.798Z,2.50
2019-04-30T18:05:39.183Z,2.57
2019-04-30T18:08:07.816Z,2.73
2019-04-30T18:10:36.242Z,2.70
2019-04-30T18:13:04.641Z,2.63
2019-04-30T18:15:33.164Z,2.73
2019-04-30T18:18:03.229Z,2.20
2019-04-30T18:20:36.296Z,2.37
2019-04-30T18:23:15.502Z,2.37
2019-04-30T18:25:45.567Z,2.77
2019-04-30T18:28:13.997Z,2.40
2019-04-30T18:30:42.494Z,2.50
2019-04-30T18:33:10.914Z,2.50
2019-04-30T18:35:39.525Z,2.40
2019-04-30T18:38:09.767Z,2.07
2019-04-30T18:40:39.779Z,2.53
2019-04-30T18:43:28.737Z,2.33
2019-04-30T18:45:57.533Z,2.20
2019-04-30T18:48:26.054Z,2.60
2019-04-30T18:50:54.646Z,2.57
2019-04-30T18:53:26.067Z,2.23
2019-04-30T18:55:55.356Z,2.80
2019-04-30T18:58:38.910Z,3.20
2019-04-30T19:00:56.367Z,6.70
2019-04-30T19:03:24.791Z,3.90
2019-04-30T19:06:03.618Z,2.80
2019-04-30T19:08:33.676Z,2.60
2019-04-30T19:11:19.073Z,2.47
2019-04-30T19:13:54.791Z,2.70
2019-04-30T19:16:27.694Z,2.40
2019-04-30T19:21:53.259Z,2.50
2019-04-30T19:24:22.060Z,2.50
2019-04-30T19:26:50.894Z,2.63
2019-04-30T19:29:23.047Z,2.33
2019-04-30T19:31:52.449Z,2.20
2019-04-30T19:34:21.453Z,3.07
2019-04-30T19:36:50.675Z,3.00
2019-04-30T19:39:20.522Z,3.00
2019-04-30T19:41:49.227Z,2.80
2019-04-30T19:44:22.741Z,2.77
2019-04-30T19:46:51.822Z,3.03
2019-04-30T19:49:20.507Z,2.90
2019-04-30T19:51:53.167Z,3.23
2019-04-30T19:54:20.050Z,3.00
2019-04-30T19:56:50.167Z,3.10
2019-04-30T19:59:19.398Z,3.17
2019-04-30T20:01:57.187Z,3.00
2019-04-30T20:04:33.287Z,3.50
2019-04-30T20:06:59.051Z,3.13
2019-04-30T20:09:29.086Z,3.40
2019-04-30T20:11:59.611Z,3.37
2019-04-30T20:14:29.225Z,3.53
2019-04-30T20:16:59.028Z,3.40
2019-04-30T20:19:34.259Z,3.80
2019-04-30T20:22:10.364Z,3.90
2019-04-30T20:24:39.433Z,3.90
2019-04-30T20:27:10.128Z,4.13
2019-04-30T20:29:40.908Z,4.10
2019-04-30T20:32:16.812Z,13.43
2019-04-30T20:34:45.435Z,8.77
2019-04-30T20:37:13.877Z,15.10
2019-04-30T20:40:02.159Z,5.00
2019-04-30T20:42:30.591Z,5.20
2019-04-30T20:44:59.059Z,4.27
2019-04-30T20:47:29.839Z,4.47
2019-04-30T20:50:17.011Z,4.57
2019-04-30T20:52:45.469Z,4.73
2019-04-30T20:55:13.929Z,4.77
2019-04-30T20:57:42.455Z,4.97
2019-04-30T21:00:12.666Z,5.37
2019-04-30T21:02:44.160Z,5.43
2019-04-30T21:05:18.454Z,5.53
2019-04-30T21:07:47.366Z,5.53
2019-04-30T21:10:15.922Z,5.70
2019-04-30T21:12:44.379Z,5.73
2019-04-30T21:15:13.324Z,5.60
2019-04-30T21:17:41.835Z,5.53
2019-04-30T21:20:31.936Z,5.57
2019-04-30T21:23:11.419Z,5.97
2019-04-30T21:25:48.809Z,5.53
2019-04-30T21:31:30.165Z,6.70
2019-04-30T21:36:49.713Z,6.50
2019-04-30T21:39:19.992Z,6.87
2019-04-30T21:42:04.766Z,6.40
2019-04-30T21:44:35.429Z,6.50
2019-04-30T21:47:04.511Z,6.30
2019-04-30T21:49:32.974Z,6.40
2019-04-30T21:52:01.407Z,6.83
2019-04-30T21:54:30.532Z,7.33
2019-04-30T21:56:59.093Z,7.10
2019-04-30T21:59:28.737Z,6.80
2019-04-30T22:04:48.979Z,7.37
2019-04-30T22:07:19.471Z,7.17
2019-04-30T22:10:09.674Z,7.40
2019-04-30T22:12:39.347Z,7.93
2019-04-30T22:15:10.551Z,7.20
2019-04-30T22:17:41.903Z,8.30
2019-04-30T22:20:11.150Z,7.33
2019-04-30T22:22:39.662Z,7.43
2019-04-30T22:25:09.444Z,8.20
2019-04-30T22:27:38.032Z,7.80
2019-04-30T22:30:11.537Z,8.63
2019-04-30T22:32:39.977Z,8.00
2019-04-30T22:35:28.084Z,7.50
2019-04-30T22:37:59.239Z,8.10
2019-04-30T22:40:31.340Z,8.10
2019-04-30T22:43:01.899Z,8.63
2019-04-30T22:45:34.483Z,8.97
2019-04-30T22:48:02.917Z,8.70
2019-04-30T22:50:31.369Z,11.10
2019-04-30T22:53:00.339Z,10.57
2019-04-30T22:55:28.936Z,9.97
2019-04-30T22:58:16.777Z,11.90
2019-04-30T23:00:46.599Z,11.07
2019-04-30T23:03:16.661Z,12.10
2019-04-30T23:05:45.158Z,11.33
2019-04-30T23:08:26.336Z,11.60
2019-04-30T23:10:55.500Z,11.33
2019-04-30T23:13:24.332Z,11.43
2019-04-30T23:15:54.957Z,11.43
2019-04-30T23:18:23.401Z,10.40
2019-04-30T23:20:51.859Z,11.23
2019-04-30T23:23:20.273Z,10.90
2019-04-30T23:25:48.713Z,11.13
2019-04-30T23:28:17.127Z,11.67
2019-04-30T23:30:46.060Z,10.50
2019-04-30T23:33:14.577Z,11.17
2019-04-30T23:35:43.077Z,12.23
2019-04-30T23:38:11.692Z,10.97
2019-04-30T23:40:48.090Z,11.00
2019-04-30T23:43:16.589Z,10.50
2019-04-30T23:45:45.190Z,10.27
2019-04-30T23:48:13.930Z,11.57
2019-04-30T23:50:49.153Z,11.30
2019-04-30T23:53:17.928Z,11.43
2019-04-30T23:55:46.498Z,11.77
2019-04-30T23:58:14.940Z,10.73
